Time;durP1;ratioP1;P1;durP2;ratioP2;P2;SDS_P1;SDS_P2;PMS_P1;PMS_P2;Temp;Humidity;BMP_temperature;BMP_pressure;BME280_temperature;BME280_humidity;BME280_pressure;Samples;Min_cycle;Max_cycle;Signal;HPM_P1;HPM_P2
2024/01/09 00:02:13;;;;;;;4.47;3.67;;;-3.20;91.70;;;;;;5050435;28;20564;-77
2024/01/09 00:04:40;;;;;;;5.87;3.67;;;-3.10;91.90;;;;;;5034125;28;20224;-78
2024/01/09 00:07:08;;;;;;;4.97;3.30;;;-3.10;91.70;;;;;;5050418;28;20198;-77
2024/01/09 00:09:36;;;;;;;5.17;3.23;;;-3.20;91.90;;;;;;5050603;28;20575;-77
2024/01/09 00:12:05;;;;;;;4.57;3.27;;;-3.30;91.60;;;;;;5053138;28;20198;-77
2024/01/09 00:14:33;;;;;;;4.20;3.03;;;-3.30;92.00;;;;;;5054385;28;20223;-77
2024/01/09 00:17:07;;;;;;;6.63;3.30;;;-3.40;91.70;;;;;;5030441;28;20551;-77
2024/01/09 00:19:35;;;;;;;5.13;3.50;;;-3.50;91.80;;;;;;5051867;28;20197;-77
2024/01/09 00:22:03;;;;;;;4.97;3.40;;;-3.40;92.10;;;;;;5038002;28;20205;-77
2024/01/09 00:24:31;;;;;;;4.40;2.97;;;-3.40;91.90;;;;;;5037800;28;20230;-77
2024/01/09 00:26:58;;;;;;;5.10;3.20;;;-3.40;91.60;;;;;;5054069;28;20201;-77
2024/01/09 00:29:27;;;;;;;4.43;2.87;;;-3.30;92.10;;;;;;5046436;28;20210;-78
2024/01/09 00:31:54;;;;;;;6.00;3.23;;;-3.50;91.30;;;;;;5037437;28;20209;-77
2024/01/09 00:34:22;;;;;;;4.50;2.87;;;-3.50;91.40;;;;;;5054279;28;20218;-77
2024/01/09 00:36:49;;;;;;;4.57;3.50;;;-3.30;91.70;;;;;;5037275;28;20198;-78
2024/01/09 00:39:17;;;;;;;3.73;3.00;;;-3.20;91.90;;;;;;5037773;28;20194;-78
2024/01/09 00:41:44;;;;;;;4.07;3.67;;;-3.10;91.70;;;;;;5037189;28;20201;-77
2024/01/09 00:44:11;;;;;;;4.07;3.03;;;-3.10;91.60;;;;;;5037721;28;20584;-78
2024/01/09 00:46:40;;;;;;;4.83;3.03;;;-3.20;91.70;;;;;;5036786;28;20198;-77
2024/01/09 00:49:08;;;;;;;4.77;2.83;;;-3.40;91.40;;;;;;5053750;28;20221;-77
2024/01/09 00:51:35;;;;;;;5.20;3.27;;;-3.30;92.10;;;;;;5037234;28;20194;-77
2024/01/09 00:54:03;;;;;;;4.37;3.10;;;-3.40;91.50;;;;;;5037798;28;20218;-77
2024/01/09 00:56:31;;;;;;;4.10;2.90;;;-3.40;91.80;;;;;;5037411;28;20208;-77
2024/01/09 00:58:58;;;;;;;4.63;2.87;;;-3.50;91.20;;;;;;5037865;28;20203;-78
2024/01/09 01:01:25;;;;;;;3.80;2.87;;;-3.30;91.60;;;;;;5054728;28;20205;-78
2024/01/09 01:03:54;;;;;;;3.87;2.70;;;-3.30;91.30;;;;;;5038493;28;20221;-78
2024/01/09 01:06:22;;;;;;;4.80;2.80;;;-3.30;91.60;;;;;;5038311;28;20202;-77
2024/01/09 01:08:49;;;;;;;4.77;3.03;;;-3.30;91.30;;;;;;5056348;28;20214;-77
2024/01/09 01:11:16;;;;;;;4.67;3.17;;;-3.50;91.50;;;;;;5038889;28;20201;-78
2024/01/09 01:13:44;;;;;;;5.07;3.40;;;-3.40;91.80;;;;;;5054620;28;20221;-78
2024/01/09 01:16:11;;;;;;;5.30;3.30;;;-3.40;91.20;;;;;;5038563;28;20205;-78
2024/01/09 01:18:39;;;;;;;5.83;2.97;;;-3.40;91.50;;;;;;5025946;28;20187;-77
2024/01/09 01:21:07;;;;;;;5.23;3.00;;;-3.40;91.50;;;;;;5042643;28;20209;-77
2024/01/09 01:23:35;;;;;;;4.87;3.37;;;-3.30;91.80;;;;;;5054443;28;20211;-77
2024/01/09 01:26:02;;;;;;;4.10;3.00;;;-3.50;91.50;;;;;;5032278;28;20194;-77
2024/01/09 01:28:30;;;;;;;5.20;3.70;;;-3.40;91.30;;;;;;5056308;28;20206;-78
2024/01/09 01:30:57;;;;;;;3.67;2.80;;;-3.40;91.40;;;;;;5041680;28;20607;-77
2024/01/09 01:33:25;;;;;;;4.73;2.90;;;-3.40;91.60;;;;;;5037111;28;20222;-77
2024/01/09 01:35:52;;;;;;;6.60;3.00;;;-3.40;91.70;;;;;;5036074;28;20195;-77
2024/01/09 01:38:21;;;;;;;4.63;3.00;;;-3.20;92.10;;;;;;5036835;28;20205;-77
2024/01/09 01:40:48;;;;;;;5.17;3.30;;;-3.20;91.90;;;;;;5037108;28;20198;-78
2024/01/09 01:43:16;;;;;;;5.57;3.37;;;-3.20;91.70;;;;;;5045302;28;20230;-77
2024/01/09 01:45:43;;;;;;;6.37;3.00;;;-3.30;92.00;;;;;;5036967;28;20190;-78
2024/01/09 01:48:11;;;;;;;4.33;2.90;;;-3.40;91.80;;;;;;5049842;28;20202;-77
2024/01/09 01:50:41;;;;;;;4.40;3.40;;;-3.60;91.70;;;;;;5055956;28;20194;-78
2024/01/09 01:53:09;;;;;;;4.07;2.77;;;-3.70;91.90;;;;;;5030694;28;20222;-78
2024/01/09 01:55:38;;;;;;;3.67;3.07;;;-3.50;92.40;;;;;;5037183;28;20690;-77
2024/01/09 01:58:06;;;;;;;3.97;2.70;;;-3.70;91.90;;;;;;5033039;28;20202;-78
2024/01/09 02:00:34;;;;;;;4.90;3.00;;;-3.50;92.60;;;;;;5036778;28;20199;-77
2024/01/09 02:03:02;;;;;;;4.60;3.40;;;-3.40;92.60;;;;;;5037125;28;20223;-77
2024/01/09 02:05:31;;;;;;;5.63;2.60;;;-3.60;92.10;;;;;;5037604;28;20206;-77
2024/01/09 02:08:00;;;;;;;4.50;2.97;;;-3.80;91.90;;;;;;5044977;28;20202;-77
2024/01/09 02:10:27;;;;;;;4.63;2.87;;;-3.90;92.20;;;;;;5036695;28;20210;-77
2024/01/09 02:12:59;;;;;;;4.50;2.90;;;-3.90;92.50;;;;;;5048203;28;20305;-77
2024/01/09 02:15:26;;;;;;;5.47;3.13;;;-3.70;92.40;;;;;;5037400;28;20194;-77
2024/01/09 02:17:54;;;;;;;6.43;3.40;;;-3.80;92.30;;;;;;5044794;28;20193;-78
2024/01/09 02:20:23;;;;;;;3.93;3.27;;;-3.70;92.60;;;;;;5050310;28;20193;-77
2024/01/09 02:22:50;;;;;;;4.37;3.00;;;-3.70;92.40;;;;;;5038752;28;20222;-78
2024/01/09 02:25:18;;;;;;;3.57;3.03;;;-3.90;92.10;;;;;;5038425;28;20680;-77
2024/01/09 02:27:57;;;;;;;4.13;3.27;;;-3.90;92.30;;;;;;5038166;28;20202;-78
2024/01/09 02:30:26;;;;;;;5.10;3.50;;;-3.70;93.20;;;;;;5051251;28;20584;-77
2024/01/09 02:32:55;;;;;;;5.97;3.17;;;-3.80;92.80;;;;;;5051208;28;20232;-78
2024/01/09 02:35:22;;;;;;;5.90;3.00;;;-3.60;92.80;;;;;;5033866;28;20203;-78
2024/01/09 02:37:50;;;;;;;4.93;2.93;;;-3.80;92.60;;;;;;5037390;28;20297;-77
2024/01/09 02:40:17;;;;;;;4.43;3.23;;;-3.80;92.80;;;;;;5040776;28;20203;-78
2024/01/09 02:42:44;;;;;;;6.17;3.17;;;-3.80;92.90;;;;;;5036866;28;20571;-78
2024/01/09 02:45:13;;;;;;;5.50;3.47;;;-3.70;92.90;;;;;;5024967;28;20207;-78
2024/01/09 02:47:42;;;;;;;6.77;3.63;;;-3.70;93.00;;;;;;5023802;28;20222;-78
2024/01/09 02:50:10;;;;;;;3.53;3.23;;;-3.70;92.70;;;;;;5042300;28;20579;-77
2024/01/09 02:52:37;;;;;;;4.73;2.83;;;-3.90;93.20;;;;;;5026828;28;20226;-77
2024/01/09 02:55:05;;;;;;;5.03;3.13;;;-4.00;93.00;;;;;;5052852;28;20198;-77
2024/01/09 02:57:32;;;;;;;4.37;2.70;;;-4.00;93.50;;;;;;5049811;28;20179;-78
2024/01/09 03:00:00;;;;;;;4.53;3.43;;;-3.90;93.50;;;;;;5049236;28;20192;-78
2024/01/09 03:02:27;;;;;;;5.63;3.57;;;-4.00;92.90;;;;;;5035786;28;20201;-78
2024/01/09 03:04:56;;;;;;;6.07;3.40;;;-3.90;93.30;;;;;;5035688;28;20198;-77
2024/01/09 03:07:23;;;;;;;4.90;3.40;;;-4.00;93.50;;;;;;5030111;28;20199;-77
2024/01/09 03:09:51;;;;;;;5.83;3.30;;;-4.00;93.30;;;;;;5027651;28;20214;-77
2024/01/09 03:12:18;;;;;;;5.07;3.00;;;-4.10;93.40;;;;;;5035255;28;20198;-77
2024/01/09 03:14:45;;;;;;;5.93;3.60;;;-3.90;93.70;;;;;;5035085;28;20212;-77
2024/01/09 03:17:13;;;;;;;5.50;3.60;;;-4.00;93.80;;;;;;5051314;28;20224;-78
2024/01/09 03:19:42;;;;;;;7.40;4.23;;;-3.90;94.00;;;;;;5034668;28;20198;-77
2024/01/09 03:22:11;;;;;;;4.27;3.17;;;-4.10;93.30;;;;;;5051796;28;20206;-77
2024/01/09 03:24:39;;;;;;;5.90;3.67;;;-3.90;94.40;;;;;;5035256;28;20209;-77
2024/01/09 03:27:06;;;;;;;5.37;3.67;;;-3.80;94.50;;;;;;5032620;28;20199;-77
2024/01/09 03:29:34;;;;;;;5.80;3.77;;;-3.70;94.70;;;;;;5050928;28;20563;-78
2024/01/09 03:32:01;;;;;;;5.57;3.60;;;-3.80;93.80;;;;;;5034969;28;20674;-78
2024/01/09 03:34:29;;;;;;;4.77;3.60;;;-4.10;93.80;;;;;;5050877;28;20218;-77
2024/01/09 03:36:56;;;;;;;4.17;3.23;;;-4.00;94.20;;;;;;5034278;28;20190;-77
2024/01/09 03:39:25;;;;;;;4.70;3.43;;;-4.10;93.90;;;;;;5040268;28;20206;-78
2024/01/09 03:41:53;;;;;;;6.47;3.80;;;-4.10;94.50;;;;;;5052235;28;20197;-77
2024/01/09 03:44:20;;;;;;;7.43;4.00;;;-4.10;94.40;;;;;;5034745;28;20226;-77
2024/01/09 03:46:47;;;;;;;6.43;4.20;;;-3.90;94.50;;;;;;5035779;28;20202;-77
2024/01/09 03:49:15;;;;;;;7.00;4.00;;;-3.90;95.10;;;;;;5039637;28;20241;-77
2024/01/09 03:51:42;;;;;;;8.63;4.07;;;-4.10;94.30;;;;;;5040140;28;20198;-77
2024/01/09 03:54:10;;;;;;;5.40;3.77;;;-4.00;94.60;;;;;;5040300;28;20672;-77
2024/01/09 03:56:38;;;;;;;6.07;3.70;;;-4.00;94.50;;;;;;5046955;28;20207;-77
2024/01/09 03:59:20;;;;;;;7.33;4.13;;;-4.00;94.80;;;;;;5045849;28;20211;-77
2024/01/09 04:01:47;;;;;;;6.40;4.03;;;-4.20;94.90;;;;;;5035017;28;20198;-78
2024/01/09 04:04:15;;;;;;;6.43;4.37;;;-4.00;95.20;;;;;;5039001;28;20214;-77
2024/01/09 04:06:44;;;;;;;4.80;3.93;;;-4.20;94.70;;;;;;5039430;28;20203;-77
2024/01/09 04:09:12;;;;;;;7.93;4.40;;;-4.30;95.10;;;;;;5055316;28;20198;-77
2024/01/09 04:11:46;;;;;;;7.07;4.00;;;-4.20;95.30;;;;;;5038809;28;20213;-77
2024/01/09 04:14:13;;;;;;;5.43;3.60;;;-4.10;96.00;;;;;;5047691;28;20301;-77
2024/01/09 04:16:45;;;;;;;5.23;3.73;;;-4.30;95.40;;;;;;5038300;28;20198;-78
2024/01/09 04:19:12;;;;;;;7.47;4.53;;;-4.20;96.10;;;;;;5035959;28;20199;-77
2024/01/09 04:21:40;;;;;;;6.33;3.90;;;-4.20;95.90;;;;;;5038838;28;20197;-77
2024/01/09 04:24:07;;;;;;;7.17;4.30;;;-4.40;95.60;;;;;;5038754;28;20285;-77
2024/01/09 04:26:36;;;;;;;6.00;4.13;;;-4.20;96.20;;;;;;5034086;28;20203;-77
2024/01/09 04:29:05;;;;;;;6.77;4.47;;;-4.00;96.50;;;;;;5046315;28;20537;-77
2024/01/09 04:31:32;;;;;;;6.60;4.43;;;-4.00;96.80;;;;;;5045739;28;20224;-78
2024/01/09 04:33:59;;;;;;;5.00;3.57;;;-4.00;96.40;;;;;;5048102;28;20218;-77
2024/01/09 04:36:27;;;;;;;6.67;4.60;;;-3.90;96.50;;;;;;5045835;28;20202;-77
2024/01/09 04:38:54;;;;;;;8.43;4.33;;;-4.00;96.20;;;;;;5043860;28;20202;-77
2024/01/09 04:41:22;;;;;;;6.53;4.07;;;-4.20;96.30;;;;;;5039071;28;20200;-77
2024/01/09 04:43:49;;;;;;;6.10;4.10;;;-4.20;96.20;;;;;;5055030;28;20221;-77
2024/01/09 04:46:18;;;;;;;7.30;4.83;;;-4.10;96.30;;;;;;5036965;28;20198;-77
2024/01/09 04:48:45;;;;;;;5.97;4.50;;;-4.10;96.20;;;;;;5019755;28;20207;-77
2024/01/09 04:51:12;;;;;;;6.57;4.30;;;-4.00;96.90;;;;;;5053164;28;20210;-77
2024/01/09 04:53:40;;;;;;;6.27;4.10;;;-4.00;96.70;;;;;;5053681;28;20222;-77
2024/01/09 04:56:09;;;;;;;6.93;4.50;;;-3.90;96.30;;;;;;5036947;28;20659;-77
2024/01/09 04:58:37;;;;;;;6.37;3.80;;;-3.80;96.50;;;;;;5031625;28;20205;-77
2024/01/09 05:01:05;;;;;;;6.27;4.23;;;-3.80;95.60;;;;;;5036967;28;20194;-77
2024/01/09 05:03:34;;;;;;;8.73;4.30;;;-3.80;95.60;;;;;;5037465;28;20218;-80
2024/01/09 05:06:02;;;;;;;8.37;4.50;;;-3.90;95.90;;;;;;5038931;28;20690;-79
2024/01/09 05:08:29;;;;;;;6.60;4.47;;;-4.10;96.00;;;;;;5038831;28;20573;-79
2024/01/09 05:10:56;;;;;;;6.80;4.37;;;-4.10;96.00;;;;;;5057483;28;20210;-77
2024/01/09 05:13:24;;;;;;;8.00;4.70;;;-4.00;96.20;;;;;;5031558;28;20210;-78
2024/01/09 05:15:51;;;;;;;8.60;4.37;;;-3.90;96.00;;;;;;5028291;28;20275;-78
2024/01/09 05:18:18;;;;;;;8.77;4.77;;;-3.80;95.80;;;;;;5030178;28;20569;-77
2024/01/09 05:20:47;;;;;;;7.33;4.93;;;-4.00;95.80;;;;;;5048480;28;20205;-78
2024/01/09 05:23:15;;;;;;;6.43;4.30;;;-4.10;95.90;;;;;;5026113;28;20223;-77
2024/01/09 05:25:42;;;;;;;5.57;4.00;;;-4.00;96.40;;;;;;5037069;28;20202;-77
2024/01/09 05:28:10;;;;;;;6.23;4.50;;;-4.10;95.90;;;;;;5037460;28;20194;-78
2024/01/09 05:30:38;;;;;;;6.27;4.43;;;-4.00;95.90;;;;;;5039393;28;20222;-77
2024/01/09 05:33:06;;;;;;;6.37;4.37;;;-4.10;95.70;;;;;;5049658;28;20222;-77
2024/01/09 05:35:33;;;;;;;8.17;4.30;;;-4.30;96.10;;;;;;5036387;28;20195;-76
2024/01/09 05:38:02;;;;;;;6.57;4.50;;;-4.20;96.30;;;;;;5035929;28;20209;-76
2024/01/09 05:40:29;;;;;;;7.77;4.23;;;-4.40;96.00;;;;;;5055952;28;20194;-76
2024/01/09 05:42:57;;;;;;;9.13;4.77;;;-4.40;96.00;;;;;;5041511;28;20223;-76
2024/01/09 05:45:24;;;;;;;6.17;4.57;;;-4.30;96.10;;;;;;5033056;28;20207;-76
2024/01/09 05:47:51;;;;;;;6.43;4.40;;;-4.20;96.60;;;;;;5022582;28;20198;-75
2024/01/09 05:50:19;;;;;;;6.90;4.20;;;-4.00;97.00;;;;;;5035394;28;20198;-76
2024/01/09 05:52:46;;;;;;;7.63;4.40;;;-4.20;95.80;;;;;;5051993;28;20699;-75
2024/01/09 05:55:15;;;;;;;6.30;4.20;;;-4.20;96.40;;;;;;5035769;28;20691;-76
2024/01/09 05:57:43;;;;;;;8.00;4.87;;;-4.30;96.10;;;;;;5035697;28;20663;-75
2024/01/09 06:00:12;;;;;;;8.60;5.33;;;-4.40;96.00;;;;;;5035554;28;20210;-75
2024/01/09 06:02:39;;;;;;;6.00;4.27;;;-4.40;96.30;;;;;;5053463;28;20212;-76
2024/01/09 06:05:07;;;;;;;10.50;6.43;;;-4.30;96.20;;;;;;5024278;28;20247;-76
2024/01/09 06:07:35;;;;;;;6.37;5.07;;;-4.30;96.30;;;;;;5015761;28;20213;-78
2024/01/09 06:10:02;;;;;;;6.83;4.30;;;-4.20;96.20;;;;;;5030290;28;20909;-78
2024/01/09 06:12:31;;;;;;;8.43;4.23;;;-4.40;96.20;;;;;;5044379;28;20214;-78
2024/01/09 06:14:58;;;;;;;5.10;4.20;;;-4.40;96.90;;;;;;5018750;28;20190;-77
2024/01/09 06:17:26;;;;;;;6.23;4.20;;;-4.30;97.60;;;;;;5034819;28;20202;-76
2024/01/09 06:19:53;;;;;;;5.23;4.10;;;-4.40;96.40;;;;;;5036562;28;20225;-76
2024/01/09 06:22:21;;;;;;;8.17;5.00;;;-4.30;97.50;;;;;;5035283;28;20194;-76
2024/01/09 06:24:48;;;;;;;8.90;4.87;;;-4.50;96.50;;;;;;5052757;28;20687;-76
2024/01/09 06:27:15;;;;;;;6.57;4.60;;;-4.40;96.70;;;;;;5052462;28;20672;-76
2024/01/09 06:29:45;;;;;;;8.03;4.53;;;-4.30;96.80;;;;;;5034519;28;20197;-76
2024/01/09 06:32:13;;;;;;;5.60;4.30;;;-4.40;96.40;;;;;;5031908;28;20218;-76
2024/01/09 06:34:40;;;;;;;5.90;4.53;;;-4.40;96.50;;;;;;5022325;28;20206;-76
2024/01/09 06:37:08;;;;;;;7.60;5.27;;;-4.50;96.40;;;;;;5052481;28;20195;-76
2024/01/09 06:39:37;;;;;;;8.30;5.03;;;-4.40;97.10;;;;;;5027627;28;20191;-75
2024/01/09 06:42:05;;;;;;;9.07;4.97;;;-4.30;96.80;;;;;;5051031;28;20554;-76
2024/01/09 06:44:32;;;;;;;7.10;4.50;;;-4.30;96.50;;;;;;5034923;28;20218;-75
2024/01/09 06:47:01;;;;;;;7.37;4.57;;;-4.60;96.80;;;;;;5030944;28;20206;-76
2024/01/09 06:49:28;;;;;;;7.80;4.90;;;-4.50;96.90;;;;;;5032746;28;20191;-76
2024/01/09 06:51:55;;;;;;;8.30;4.73;;;-4.40;97.10;;;;;;5031680;28;20225;-76
2024/01/09 06:54:23;;;;;;;6.80;5.27;;;-4.30;96.90;;;;;;5034576;28;20276;-76
2024/01/09 06:56:50;;;;;;;6.93;5.30;;;-4.20;97.00;;;;;;5034040;28;20201;-76
2024/01/09 06:59:18;;;;;;;7.97;4.80;;;-4.40;96.60;;;;;;5051831;28;20190;-76
2024/01/09 07:01:46;;;;;;;7.23;4.90;;;-4.30;97.40;;;;;;5033588;28;20198;-76
2024/01/09 07:04:15;;;;;;;7.13;5.03;;;-4.50;97.00;;;;;;5045716;28;20636;-76
2024/01/09 07:06:43;;;;;;;8.37;5.10;;;-4.30;97.80;;;;;;5046296;28;20201;-77
2024/01/09 07:09:11;;;;;;;9.00;4.97;;;-3.70;99.90;;;;;;5037061;28;20553;-77
2024/01/09 07:11:38;;;;;;;8.97;5.80;;;-2.80;99.90;;;;;;5030341;28;20561;-79
2024/01/09 07:14:07;;;;;;;9.63;6.33;;;-3.40;97.70;;;;;;5032709;28;20239;-79
2024/01/09 07:16:45;;;;;;;10.20;5.73;;;-3.90;97.30;;;;;;5050386;28;20193;-80
2024/01/09 07:19:13;;;;;;;10.30;5.57;;;-4.30;97.60;;;;;;5049408;28;20713;-79
2024/01/09 07:21:42;;;;;;;10.57;5.37;;;-4.40;97.80;;;;;;5036047;28;20197;-79
2024/01/09 07:24:09;;;;;;;9.70;4.90;;;-4.80;97.70;;;;;;5052534;28;20637;-79
2024/01/09 07:26:40;;;;;;;7.30;5.57;;;-4.70;98.40;;;;;;5043352;28;20209;-79
2024/01/09 07:29:08;;;;;;;7.57;5.37;;;-4.60;98.60;;;;;;5038433;28;20198;-78
2024/01/09 07:31:35;;;;;;;8.87;5.57;;;-4.70;98.50;;;;;;5041253;28;20218;-79
2024/01/09 07:34:03;;;;;;;7.73;5.60;;;-4.40;99.00;;;;;;5058631;28;20226;-80
2024/01/09 07:36:38;;;;;;;9.90;6.37;;;-4.60;98.20;;;;;;5042015;28;20198;-80
2024/01/09 07:39:09;;;;;;;9.03;5.97;;;-4.50;98.40;;;;;;5042254;28;20198;-79
2024/01/09 07:41:49;;;;;;;11.97;5.97;;;-4.40;98.20;;;;;;5042533;28;20198;-79
2024/01/09 07:44:17;;;;;;;10.07;5.10;;;-4.50;98.50;;;;;;5045032;28;20221;-79
2024/01/09 07:46:45;;;;;;;12.10;6.20;;;-4.50;98.20;;;;;;5030468;28;20203;-79
2024/01/09 07:49:12;;;;;;;8.80;5.50;;;-4.60;97.90;;;;;;5038313;28;20209;-79
2024/01/09 07:51:39;;;;;;;8.17;6.07;;;-4.50;98.10;;;;;;5055381;28;20590;-79
2024/01/09 07:54:08;;;;;;;11.30;5.70;;;-4.70;97.90;;;;;;5041066;28;20229;-79
2024/01/09 07:56:36;;;;;;;10.10;5.67;;;-4.70;98.30;;;;;;5032502;28;20209;-82
2024/01/09 07:59:04;;;;;;;10.20;5.43;;;-4.60;98.20;;;;;;5040567;28;20202;-82
2024/01/09 08:01:43;;;;;;;10.47;5.57;;;-4.50;98.10;;;;;;5041521;28;20202;-81
2024/01/09 08:04:10;;;;;;;8.80;5.47;;;-4.50;98.40;;;;;;5041298;28;20229;-81
2024/01/09 08:06:38;;;;;;;9.30;6.00;;;-4.60;97.90;;;;;;5057027;28;20187;-79
2024/01/09 08:09:05;;;;;;;9.93;5.80;;;-4.40;98.30;;;;;;5038098;28;20216;-79
2024/01/09 08:11:37;;;;;;;9.97;6.03;;;-4.40;98.00;;;;;;5045403;28;20214;-78
2024/01/09 08:14:04;;;;;;;10.10;6.27;;;-4.40;97.50;;;;;;5037979;28;20214;-79
2024/01/09 08:16:32;;;;;;;9.03;5.43;;;-4.50;97.70;;;;;;5038512;28;20221;-79
2024/01/09 08:18:59;;;;;;;8.73;5.50;;;-4.20;97.80;;;;;;5055750;28;20206;-80
2024/01/09 08:21:27;;;;;;;10.10;6.50;;;-4.40;97.70;;;;;;5037482;28;20217;-79
2024/01/09 08:23:54;;;;;;;7.57;4.87;;;-4.10;98.30;;;;;;5055653;28;20214;-80
2024/01/09 08:26:22;;;;;;;9.13;5.90;;;-4.20;97.20;;;;;;5038510;28;20281;-80
2024/01/09 08:28:51;;;;;;;8.13;5.37;;;-4.10;97.40;;;;;;5044340;28;20199;-79
2024/01/09 08:31:18;;;;;;;8.00;5.33;;;-4.00;97.30;;;;;;5031075;28;20215;-80
2024/01/09 08:33:46;;;;;;;7.30;5.23;;;-4.00;97.20;;;;;;5049029;28;20694;-79
2024/01/09 08:36:15;;;;;;;8.27;5.30;;;-4.20;96.80;;;;;;5023646;28;20206;-80
2024/01/09 08:38:52;;;;;;;7.17;4.83;;;-4.10;96.90;;;;;;5044291;28;20199;-79
2024/01/09 08:41:20;;;;;;;9.20;6.03;;;-4.10;97.10;;;;;;5037765;28;20191;-80
2024/01/09 08:43:48;;;;;;;6.60;5.40;;;-4.00;97.30;;;;;;5034094;28;20284;-80
2024/01/09 08:46:17;;;;;;;15.33;4.67;;;-3.90;96.50;;;;;;5054699;28;20687;-80
2024/01/09 08:48:46;;;;;;;9.23;5.10;;;-3.90;96.10;;;;;;5050667;28;20213;-79
2024/01/09 08:51:13;;;;;;;7.07;4.40;;;-4.00;96.00;;;;;;5038849;28;20209;-79
2024/01/09 08:53:41;;;;;;;9.37;5.30;;;-4.00;96.10;;;;;;5038565;28;20218;-80
2024/01/09 08:56:09;;;;;;;7.07;5.13;;;-3.90;96.00;;;;;;5038109;28;20209;-80
2024/01/09 08:58:41;;;;;;;6.00;4.83;;;-3.80;96.30;;;;;;5038078;28;20194;-80
2024/01/09 09:01:10;;;;;;;7.77;5.27;;;-3.80;95.80;;;;;;5035889;28;20202;-79
2024/01/09 09:03:39;;;;;;;8.53;5.17;;;-3.90;95.60;;;;;;5031195;28;20222;-79
2024/01/09 09:06:23;;;;;;;5.37;4.40;;;-3.90;95.40;;;;;;5030543;28;20199;-79
2024/01/09 09:08:51;;;;;;;7.53;5.57;;;-3.80;95.50;;;;;;5027659;28;20206;-79
2024/01/09 09:11:18;;;;;;;8.20;4.53;;;-3.60;95.40;;;;;;5033048;28;20217;-79
2024/01/09 09:13:46;;;;;;;8.07;5.07;;;-3.80;95.40;;;;;;5060901;28;20222;-79
2024/01/09 09:16:14;;;;;;;7.43;5.13;;;-3.50;95.80;;;;;;5053543;28;20207;-79
2024/01/09 09:18:44;;;;;;;8.97;4.67;;;-3.40;95.30;;;;;;5035696;28;20213;-79
2024/01/09 09:21:21;;;;;;;7.00;4.67;;;-3.40;94.70;;;;;;5038299;28;20204;-79
2024/01/09 09:23:48;;;;;;;8.97;5.80;;;-3.50;94.60;;;;;;5052635;28;20209;-78
2024/01/09 09:26:15;;;;;;;9.20;5.43;;;-3.40;94.60;;;;;;5036169;28;20206;-79
2024/01/09 09:28:47;;;;;;;8.27;5.53;;;-3.50;94.10;;;;;;5054251;28;20209;-79
2024/01/09 09:31:17;;;;;;;7.77;4.80;;;-3.60;94.40;;;;;;5030323;28;20217;-82
2024/01/09 09:33:45;;;;;;;8.03;5.40;;;-3.30;94.30;;;;;;5035328;28;20233;-81
2024/01/09 09:36:14;;;;;;;8.07;5.23;;;-3.20;94.10;;;;;;5053649;28;20205;-80
2024/01/09 09:38:41;;;;;;;8.77;5.43;;;-3.30;93.60;;;;;;5037250;28;20210;-80
2024/01/09 09:41:09;;;;;;;7.43;4.53;;;-3.20;93.50;;;;;;5032991;28;20202;-79
2024/01/09 09:43:39;;;;;;;12.93;6.13;;;-3.20;93.20;;;;;;5034569;28;20222;-80
2024/01/09 09:46:11;;;;;;;7.60;4.87;;;-3.30;93.50;;;;;;5054372;28;20542;-80
2024/01/09 09:48:38;;;;;;;9.07;5.00;;;-3.20;93.30;;;;;;5054239;28;20687;-81
2024/01/09 09:51:09;;;;;;;10.30;4.90;;;-3.00;93.00;;;;;;5047539;28;20202;-80
2024/01/09 09:53:37;;;;;;;10.43;5.67;;;-3.10;92.70;;;;;;5037526;28;20221;-80
2024/01/09 09:56:23;;;;;;;7.30;4.20;;;-3.00;93.00;;;;;;5036833;28;20209;-81
2024/01/09 09:58:57;;;;;;;6.50;3.90;;;-3.00;92.60;;;;;;5056117;28;20194;-80
2024/01/09 10:01:27;;;;;;;7.53;4.80;;;-3.00;92.50;;;;;;5054691;28;20186;-81
2024/01/09 10:03:57;;;;;;;7.33;4.93;;;-2.70;92.50;;;;;;5037980;28;20214;-80
2024/01/09 10:06:29;;;;;;;6.40;4.53;;;-2.90;91.90;;;;;;5056146;28;20193;-81
2024/01/09 10:08:58;;;;;;;7.30;4.17;;;-2.90;91.70;;;;;;5054650;28;20197;-82
2024/01/09 10:11:25;;;;;;;7.10;4.50;;;-2.60;92.00;;;;;;5054734;28;20683;-81
2024/01/09 10:13:54;;;;;;;7.57;4.60;;;-2.50;91.80;;;;;;5037325;28;20217;-80
2024/01/09 10:16:21;;;;;;;9.80;6.27;;;-2.40;91.10;;;;;;5038048;28;20222;-80
2024/01/09 10:18:54;;;;;;;5.77;4.27;;;-2.40;91.10;;;;;;5056428;28;20199;-81
2024/01/09 10:21:23;;;;;;;9.40;4.83;;;-2.10;91.00;;;;;;5036704;28;20205;-80
2024/01/09 10:23:57;;;;;;;6.93;5.20;;;-2.30;90.20;;;;;;5017967;28;20230;-81
2024/01/09 10:26:27;;;;;;;7.23;4.60;;;-2.20;90.30;;;;;;5052247;28;20190;-80
2024/01/09 10:28:58;;;;;;;7.57;4.40;;;-2.10;89.70;;;;;;5053247;28;20187;-80
2024/01/09 10:31:31;;;;;;;7.03;4.80;;;-1.70;90.30;;;;;;5035405;28;20210;-80
2024/01/09 10:33:59;;;;;;;7.00;4.80;;;-1.40;89.80;;;;;;5036642;28;20221;-80
2024/01/09 10:36:32;;;;;;;9.17;4.90;;;-1.40;89.60;;;;;;5049524;28;20571;-81
2024/01/09 10:39:07;;;;;;;8.50;4.70;;;-1.20;88.60;;;;;;5029751;28;20198;-81
2024/01/09 10:41:35;;;;;;;8.13;4.47;;;-1.40;87.70;;;;;;5036262;28;20199;-81
2024/01/09 10:44:03;;;;;;;6.73;4.50;;;-1.70;85.20;;;;;;5041751;28;20229;-80
2024/01/09 10:46:31;;;;;;;7.73;5.10;;;-1.70;87.40;;;;;;5034532;28;20207;-81
2024/01/09 10:49:00;;;;;;;6.70;4.10;;;-1.10;86.70;;;;;;5032591;28;20202;-80
2024/01/09 10:51:28;;;;;;;6.77;4.67;;;-0.90;85.80;;;;;;5030616;28;20203;-80
2024/01/09 10:53:58;;;;;;;6.27;4.33;;;-1.20;83.10;;;;;;5036433;28;20219;-80
2024/01/09 10:56:28;;;;;;;6.00;4.50;;;-0.20;84.70;;;;;;5055709;28;20198;-80
2024/01/09 10:58:58;;;;;;;7.30;4.43;;;-0.20;83.10;;;;;;5047276;28;20261;-76
2024/01/09 11:01:25;;;;;;;7.00;3.83;;;1.10;95.00;;;;;;5044093;28;20677;-76
2024/01/09 11:03:53;;;;;;;5.33;4.33;;;2.90;86.10;;;;;;5047299;28;20213;-81
2024/01/09 11:06:21;;;;;;;5.60;4.33;;;1.90;75.90;;;;;;5037578;28;20286;-81
2024/01/09 11:08:52;;;;;;;6.57;4.13;;;1.80;67.00;;;;;;5034042;28;20199;-81
2024/01/09 11:11:23;;;;;;;6.17;4.40;;;1.10;67.40;;;;;;5053662;28;20261;-81
2024/01/09 11:13:54;;;;;;;5.90;4.47;;;1.00;69.80;;;;;;5050892;28;20207;-81
2024/01/09 11:16:24;;;;;;;5.80;3.70;;;0.50;67.70;;;;;;5036333;28;20845;-81
2024/01/09 11:18:53;;;;;;;6.43;4.60;;;2.30;69.50;;;;;;5049841;28;20204;-81
2024/01/09 11:21:25;;;;;;;5.00;3.80;;;1.80;66.20;;;;;;5034028;28;20564;-81
2024/01/09 11:23:54;;;;;;;7.83;4.27;;;2.40;63.90;;;;;;5053112;28;20211;-82
2024/01/09 11:26:23;;;;;;;7.27;4.67;;;1.30;61.90;;;;;;5036890;28;20580;-81
2024/01/09 11:28:52;;;;;;;5.67;3.93;;;2.60;63.50;;;;;;5037503;28;20293;-82
2024/01/09 11:31:21;;;;;;;7.00;3.87;;;1.60;58.10;;;;;;5036387;28;20201;-81
2024/01/09 11:33:49;;;;;;;5.67;4.23;;;1.50;61.20;;;;;;5055420;28;20218;-81
2024/01/09 11:36:24;;;;;;;6.23;4.00;;;2.70;62.10;;;;;;5034543;28;20216;-82
2024/01/09 11:39:04;;;;;;;5.63;3.70;;;3.50;59.20;;;;;;5021909;28;20646;-81
2024/01/09 11:41:33;;;;;;;6.20;4.60;;;4.10;55.20;;;;;;5054963;28;20194;-82
2024/01/09 11:44:03;;;;;;;8.00;4.70;;;3.10;52.00;;;;;;5033875;28;20219;-81
2024/01/09 11:46:34;;;;;;;4.97;3.73;;;3.20;54.70;;;;;;5036610;28;20198;-81
2024/01/09 11:49:02;;;;;;;4.77;3.70;;;3.30;55.00;;;;;;5037661;28;20213;-81
2024/01/09 11:51:30;;;;;;;4.53;3.43;;;2.30;51.30;;;;;;5052144;28;20206;-81
2024/01/09 11:53:59;;;;;;;5.20;3.63;;;1.40;51.50;;;;;;5037223;28;20230;-81
2024/01/09 11:56:27;;;;;;;5.57;3.93;;;2.20;55.10;;;;;;5028290;28;20201;-81
2024/01/09 11:58:56;;;;;;;6.53;3.90;;;2.20;52.80;;;;;;5033786;28;20203;-81
2024/01/09 12:01:26;;;;;;;5.50;3.53;;;3.10;53.50;;;;;;5032388;28;20202;-81
2024/01/09 12:03:53;;;;;;;5.10;3.50;;;3.50;49.30;;;;;;5061656;28;20219;-81
2024/01/09 12:06:26;;;;;;;6.10;3.93;;;3.20;51.10;;;;;;5028233;28;20195;-81
2024/01/09 12:08:54;;;;;;;5.23;4.07;;;5.30;49.00;;;;;;5041206;28;20209;-81
2024/01/09 12:11:21;;;;;;;5.37;3.97;;;4.80;48.50;;;;;;5040685;28;20217;-82
2024/01/09 12:13:58;;;;;;;6.00;3.60;;;4.50;45.00;;;;;;5056387;28;20230;-81
2024/01/09 12:16:29;;;;;;;4.90;3.67;;;5.50;41.80;;;;;;5039882;28;20199;-82
2024/01/09 12:18:56;;;;;;;5.10;3.67;;;6.40;41.00;;;;;;5058345;28;20542;-82
2024/01/09 12:21:26;;;;;;;5.43;3.53;;;5.50;41.80;;;;;;5033329;28;20209;-81
2024/01/09 12:23:55;;;;;;;5.47;3.53;;;5.10;41.10;;;;;;5056228;28;20224;-82
2024/01/09 12:26:23;;;;;;;4.87;3.73;;;6.30;40.80;;;;;;5039829;28;20202;-80
2024/01/09 12:28:52;;;;;;;5.30;3.60;;;5.40;38.50;;;;;;5040600;28;20567;-82
2024/01/09 12:31:24;;;;;;;5.23;3.80;;;6.40;38.50;;;;;;5040058;28;20213;-82
2024/01/09 12:33:53;;;;;;;4.93;3.40;;;5.50;37.30;;;;;;5037569;28;20233;-82
2024/01/09 12:36:23;;;;;;;7.03;4.30;;;4.80;39.70;;;;;;5040058;28;20213;-81
2024/01/09 12:38:51;;;;;;;5.07;3.63;;;6.30;39.10;;;;;;5053798;28;20202;-82
2024/01/09 12:41:21;;;;;;;5.40;3.90;;;4.30;36.40;;;;;;5040595;28;20201;-82
2024/01/09 12:43:49;;;;;;;5.10;3.50;;;5.80;36.80;;;;;;5055971;28;20221;-82
2024/01/09 12:46:16;;;;;;;4.70;3.73;;;7.60;37.20;;;;;;5032302;28;20206;-82
2024/01/09 12:48:47;;;;;;;4.13;3.47;;;8.50;34.00;;;;;;5040087;28;20202;-83
2024/01/09 12:51:16;;;;;;;4.33;3.47;;;7.40;34.20;;;;;;5040512;28;20206;-82
2024/01/09 12:53:44;;;;;;;5.83;3.53;;;6.00;34.10;;;;;;5045611;28;20227;-82
2024/01/09 12:56:14;;;;;;;5.80;3.70;;;7.40;33.60;;;;;;5039778;28;20213;-83